CYTH

Thompson Airport

Thompson, Manitoba, Canada
TAF CYTH 210638Z 2107/2119 VRB03KT P6SM BKN100 BECMG 2107/2109 SCT100 FM211400 05008KT P6SM FEW070 RMK NXT FCST BY 211300Z
Issued Valid From Valid To
Jun-21 @ 06:38 UTC
(4 hours ago)
Jun-21 @ 07:00 UTC
(3 hours ago)
Jun-21 @ 19:00 UTC
(in 9 hours)
Jun-21 @ 07:00 to Jun-21 @ 19:00
TAF CYTH 210638Z 2107/2119 VRB03KT P6SM BKN100
Wind Visibility Clouds
Variable at 3 knots Greater than 6 miles
  • Broken at 10,000' AGL
Becoming Jun-21 @ 07:00 to Jun-21 @ 14:00
BECMG 2107/2109 SCT100
Wind Visibility Clouds
Variable at 3 knots Greater than 6 miles
  • Scattered at 10,000' AGL
From Jun-21 @ 14:00 to Jun-21 @ 19:00
FM211400 05008KT P6SM FEW070 RMK NXT FCST BY 211300Z
Wind Visibility Clouds
50° at 8 knots Greater than 6 miles
  • Few at 7,000' AGL
TAF CYTH 210638Z 2107/2119 VRB03KT P6SM BKN100 BECMG 2107/2109 SCT100 FM211400 05008KT P6SM FEW070 RMK NXT FCST BY 211300Z
Issued Jun-21 @ 06:38 UTC
(4 hours ago)
Valid From Jun-21 @ 07:00 UTC
(3 hours ago)
Valid To Jun-21 @ 19:00 UTC
(in 9 hours)
Jun-21 @ 07:00 - Jun-21 @ 19:00
Wind Visibility
Variable at 3 knots Greater than 6 miles
Clouds
  • Broken at 10,000' AGL
Becoming Jun-21 @ 07:00 - Jun-21 @ 14:00
Wind Visibility
Variable at 3 knots Greater than 6 miles
Clouds
  • Scattered at 10,000' AGL
From Jun-21 @ 14:00 - Jun-21 @ 19:00
Wind Visibility
50° at 8 knots Greater than 6 miles
Clouds
  • Few at 7,000' AGL